Aviation Digital Data Service (ADDS)

Output produced by METARs form (1334 UTC 24 August 2019)
found at http://www.aviationweather.gov/metar/data/
 
METAR text: ETMN 241320Z 12009KT 9999 FEW055 28/11 Q1022 BLU+
Conditions at: ETMN (NORDHOLZ (GER-NA, DE) observed 1320 UTC 24 August 2019
Temperature: 28.0°C (82°F)
Dewpoint: 11.0°C (52°F) [RH = 35%]
Pressure (altimeter): 30.18 inches Hg (1022.0 mb)
Winds: from the ESE (120 degrees) at 10 MPH (9 knots; 4.6 m/s)
Visibility: 6 or more miles (10+ km)
Ceiling: at least 12,000 feet AGL
Clouds: few clouds at 5500 feet AGL
Weather: no significant weather observed at this time

METAR text: ETMN 241220Z 11009KT 9999 FEW280 27/12 Q1023 BLU+
Conditions at: ETMN (NORDHOLZ (GER-NA, DE) observed 1220 UTC 24 August 2019
Temperature: 27.0°C (81°F)
Dewpoint: 12.0°C (54°F) [RH = 39%]
Pressure (altimeter): 30.21 inches Hg (1023.0 mb)
Winds: from the ESE (110 degrees) at 10 MPH (9 knots; 4.6 m/s)
Visibility: 6 or more miles (10+ km)
Ceiling: at least 12,000 feet AGL
Clouds: few clouds at 28000 feet AGL
Weather: no significant weather observed at this time

METAR text: ETMN 241120Z 11007KT 9999 FEW280 26/13 Q1023 BLU+
Conditions at: ETMN (NORDHOLZ (GER-NA, DE) observed 1120 UTC 24 August 2019
Temperature: 26.0°C (79°F)
Dewpoint: 13.0°C (55°F) [RH = 45%]
Pressure (altimeter): 30.21 inches Hg (1023.0 mb)
Winds: from the ESE (110 degrees) at 8 MPH (7 knots; 3.6 m/s)
Visibility: 6 or more miles (10+ km)
Ceiling: at least 12,000 feet AGL
Clouds: few clouds at 28000 feet AGL
Weather: no significant weather observed at this time

METAR text: ETMN 241020Z 12007KT 9999 FEW280 25/13 Q1024 BLU+
Conditions at: ETMN (NORDHOLZ (GER-NA, DE) observed 1020 UTC 24 August 2019
Temperature: 25.0°C (77°F)
Dewpoint: 13.0°C (55°F) [RH = 47%]
Pressure (altimeter): 30.24 inches Hg (1024.0 mb)
Winds: from the ESE (120 degrees) at 8 MPH (7 knots; 3.6 m/s)
Visibility: 6 or more miles (10+ km)
Ceiling: at least 12,000 feet AGL
Clouds: few clouds at 28000 feet AGL
Weather: no significant weather observed at this time

METAR text: ETMN 240920Z 11008KT 9999 FEW280 23/14 Q1024 BLU+
Conditions at: ETMN (NORDHOLZ (GER-NA, DE) observed 0920 UTC 24 August 2019
Temperature: 23.0°C (73°F)
Dewpoint: 14.0°C (57°F) [RH = 57%]
Pressure (altimeter): 30.24 inches Hg (1024.0 mb)
Winds: from the ESE (110 degrees) at 9 MPH (8 knots; 4.1 m/s)
Visibility: 6 or more miles (10+ km)
Ceiling: at least 12,000 feet AGL
Clouds: few clouds at 28000 feet AGL
Weather: no significant weather observed at this time

METAR text: ETMN 240820Z 09011KT 9999 FEW280 21/14 Q1024 BLU+
Conditions at: ETMN (NORDHOLZ (GER-NA, DE) observed 0820 UTC 24 August 2019
Temperature: 21.0°C (70°F)
Dewpoint: 14.0°C (57°F) [RH = 64%]
Pressure (altimeter): 30.24 inches Hg (1024.0 mb)
Winds: from the E (90 degrees) at 13 MPH (11 knots; 5.7 m/s)
Visibility: 6 or more miles (10+ km)
Ceiling: at least 12,000 feet AGL
Clouds: few clouds at 28000 feet AGL
Weather: no significant weather observed at this time

METAR text: ETMN 240720Z 09010KT 9999 FEW280 19/15 Q1024 BLU+
Conditions at: ETMN (NORDHOLZ (GER-NA, DE) observed 0720 UTC 24 August 2019
Temperature: 19.0°C (66°F)
Dewpoint: 15.0°C (59°F) [RH = 78%]
Pressure (altimeter): 30.24 inches Hg (1024.0 mb)
Winds: from the E (90 degrees) at 12 MPH (10 knots; 5.1 m/s)
Visibility: 6 or more miles (10+ km)
Ceiling: at least 12,000 feet AGL
Clouds: few clouds at 28000 feet AGL
Weather: no significant weather observed at this time

METAR text: ETMN 240620Z 08007KT 9999 FEW280 16/15 Q1024 BLU+
Conditions at: ETMN (NORDHOLZ (GER-NA, DE) observed 0620 UTC 24 August 2019
Temperature: 16.0°C (61°F)
Dewpoint: 15.0°C (59°F) [RH = 94%]
Pressure (altimeter): 30.24 inches Hg (1024.0 mb)
Winds: from the E (80 degrees) at 8 MPH (7 knots; 3.6 m/s)
Visibility: 6 or more miles (10+ km)
Ceiling: at least 12,000 feet AGL
Clouds: few clouds at 28000 feet AGL
Weather: no significant weather observed at this time

METAR text: ETMN 240520Z 10006KT 9999 MIFG FEW280 15/14 Q1024 BLU+
Conditions at: ETMN (NORDHOLZ (GER-NA, DE) observed 0520 UTC 24 August 2019
Temperature: 15.0°C (59°F)
Dewpoint: 14.0°C (57°F) [RH = 94%]
Pressure (altimeter): 30.24 inches Hg (1024.0 mb)
Winds: from the E (100 degrees) at 7 MPH (6 knots; 3.1 m/s)
Visibility: 6 or more miles (10+ km)
Ceiling: at least 12,000 feet AGL
Clouds: few clouds at 28000 feet AGL
Weather: MIFG  (shallow fog)

METAR text: ETMN 240420Z 09007KT 9999 MIFG FEW280 15/14 Q1024 BLU+
Conditions at: ETMN (NORDHOLZ (GER-NA, DE) observed 0420 UTC 24 August 2019
Temperature: 15.0°C (59°F)
Dewpoint: 14.0°C (57°F) [RH = 94%]
Pressure (altimeter): 30.24 inches Hg (1024.0 mb)
Winds: from the E (90 degrees) at 8 MPH (7 knots; 3.6 m/s)
Visibility: 6 or more miles (10+ km)
Ceiling: at least 12,000 feet AGL
Clouds: few clouds at 28000 feet AGL
Weather: MIFG  (shallow fog)

METAR text: ETMN 240320Z AUTO 07007KT 2200 // ////// 14/14 Q1025 ///
Conditions at: ETMN (NORDHOLZ (GER-NA, DE) observed 0320 UTC 24 August 2019
Temperature: 14.0°C (57°F)
Dewpoint: 14.0°C (57°F) [RH = 100%]
Pressure (altimeter): 30.27 inches Hg (1025.0 mb)
Winds: from the ENE (70 degrees) at 8 MPH (7 knots; 3.6 m/s)
Visibility: 1.37 miles (2.20 km)
Ceiling: unknown
Clouds: missing
Weather: no significant weather observed at this time

METAR text: ETMN 240220Z AUTO 09004KT 0100 // ////// 13/13 Q1025 ///
Conditions at: ETMN (NORDHOLZ (GER-NA, DE) observed 0220 UTC 24 August 2019
Temperature: 13.0°C (55°F)
Dewpoint: 13.0°C (55°F) [RH = 100%]
Pressure (altimeter): 30.27 inches Hg (1025.0 mb)
Winds: from the E (90 degrees) at 5 MPH (4 knots; 2.1 m/s)
Visibility: 0.06 miles (0.10 km)
Ceiling: unknown
Clouds: missing
Weather: no significant weather observed at this time

METAR text: ETMN 240120Z AUTO 09004KT 0050 // ////// 14/14 Q1025 ///
Conditions at: ETMN (NORDHOLZ (GER-NA, DE) observed 0120 UTC 24 August 2019
Temperature: 14.0°C (57°F)
Dewpoint: 14.0°C (57°F) [RH = 100%]
Pressure (altimeter): 30.27 inches Hg (1025.0 mb)
Winds: from the E (90 degrees) at 5 MPH (4 knots; 2.1 m/s)
Visibility: 0.03 miles (0.05 km)
Ceiling: unknown
Clouds: missing
Weather: no significant weather observed at this time

METAR text: ETMN 240020Z AUTO 08004KT 0050 // ////// 15/14 Q1025 ///
Conditions at: ETMN (NORDHOLZ (GER-NA, DE) observed 0020 UTC 24 August 2019
Temperature: 15.0°C (59°F)
Dewpoint: 14.0°C (57°F) [RH = 94%]
Pressure (altimeter): 30.27 inches Hg (1025.0 mb)
Winds: from the E (80 degrees) at 5 MPH (4 knots; 2.1 m/s)
Visibility: 0.03 miles (0.05 km)
Ceiling: unknown
Clouds: missing
Weather: no significant weather observed at this time

METAR text: ETMN 232320Z AUTO 09004KT 0050 // ////// 16/15 Q1025 ///
Conditions at: ETMN (NORDHOLZ (GER-NA, DE) observed 2320 UTC 23 August 2019
Temperature: 16.0°C (61°F)
Dewpoint: 15.0°C (59°F) [RH = 94%]
Pressure (altimeter): 30.27 inches Hg (1025.0 mb)
Winds: from the E (90 degrees) at 5 MPH (4 knots; 2.1 m/s)
Visibility: 0.03 miles (0.05 km)
Ceiling: unknown
Clouds: missing
Weather: no significant weather observed at this time

METAR text: ETMN 232220Z AUTO 08004KT 4100 // ////// 17/15 Q1025 ///
Conditions at: ETMN (NORDHOLZ (GER-NA, DE) observed 2220 UTC 23 August 2019
Temperature: 17.0°C (63°F)
Dewpoint: 15.0°C (59°F) [RH = 88%]
Pressure (altimeter): 30.27 inches Hg (1025.0 mb)
Winds: from the E (80 degrees) at 5 MPH (4 knots; 2.1 m/s)
Visibility: 2.55 miles (4.10 km)
Ceiling: unknown
Clouds: missing
Weather: no significant weather observed at this time

METAR text: ETMN 232120Z AUTO 07004KT 5000 // ////// 17/15 Q1025 ///
Conditions at: ETMN (NORDHOLZ (GER-NA, DE) observed 2120 UTC 23 August 2019
Temperature: 17.0°C (63°F)
Dewpoint: 15.0°C (59°F) [RH = 88%]
Pressure (altimeter): 30.27 inches Hg (1025.0 mb)
Winds: from the ENE (70 degrees) at 5 MPH (4 knots; 2.1 m/s)
Visibility: 3 miles ( 5 km)
Ceiling: unknown
Clouds: missing
Weather: no significant weather observed at this time

METAR text: ETMN 232020Z AUTO 05004KT 7000 // ////// 17/15 Q1025 ///
Conditions at: ETMN (NORDHOLZ (GER-NA, DE) observed 2020 UTC 23 August 2019
Temperature: 17.0°C (63°F)
Dewpoint: 15.0°C (59°F) [RH = 88%]
Pressure (altimeter): 30.27 inches Hg (1025.0 mb)
Winds: from the NE (50 degrees) at 5 MPH (4 knots; 2.1 m/s)
Visibility: 4 miles ( 7 km)
Ceiling: unknown
Clouds: missing
Weather: no significant weather observed at this time

METAR text: ETMN 231920Z 05004KT 9999 SCT320 18/15 Q1026 BLU+
Conditions at: ETMN (NORDHOLZ (GER-NA, DE) observed 1920 UTC 23 August 2019
Temperature: 18.0°C (64°F)
Dewpoint: 15.0°C (59°F) [RH = 83%]
Pressure (altimeter): 30.30 inches Hg (1026.0 mb)
Winds: from the NE (50 degrees) at 5 MPH (4 knots; 2.1 m/s)
Visibility: 6 or more miles (10+ km)
Ceiling: at least 12,000 feet AGL
Clouds: scattered clouds at 32000 feet AGL
Weather: no significant weather observed at this time

METAR text: ETMN 231820Z 02005KT 9999 BKN330 19/14 Q1025 BLU+
Conditions at: ETMN (NORDHOLZ (GER-NA, DE) observed 1820 UTC 23 August 2019
Temperature: 19.0°C (66°F)
Dewpoint: 14.0°C (57°F) [RH = 73%]
Pressure (altimeter): 30.27 inches Hg (1025.0 mb)
Winds: from the NNE (20 degrees) at 6 MPH (5 knots; 2.6 m/s)
Visibility: 6 or more miles (10+ km)
Ceiling: 33000 feet AGL
Clouds: broken clouds at 33000 feet AGL
Weather: no significant weather observed at this time

METAR text: ETMN 231720Z 01005KT 9999 BKN290 21/14 Q1025 BLU+
Conditions at: ETMN (NORDHOLZ (GER-NA, DE) observed 1720 UTC 23 August 2019
Temperature: 21.0°C (70°F)
Dewpoint: 14.0°C (57°F) [RH = 64%]
Pressure (altimeter): 30.27 inches Hg (1025.0 mb)
Winds: from the N (10 degrees) at 6 MPH (5 knots; 2.6 m/s)
Visibility: 6 or more miles (10+ km)
Ceiling: 29000 feet AGL
Clouds: broken clouds at 29000 feet AGL
Weather: no significant weather observed at this time

METAR text: ETMN 231620Z 34007KT 9999 BKN300 22/14 Q1025 BLU+
Conditions at: ETMN (NORDHOLZ (GER-NA, DE) observed 1620 UTC 23 August 2019
Temperature: 22.0°C (72°F)
Dewpoint: 14.0°C (57°F) [RH = 60%]
Pressure (altimeter): 30.27 inches Hg (1025.0 mb)
Winds: from the NNW (340 degrees) at 8 MPH (7 knots; 3.6 m/s)
Visibility: 6 or more miles (10+ km)
Ceiling: 30000 feet AGL
Clouds: broken clouds at 30000 feet AGL
Weather: no significant weather observed at this time

METAR text: ETMN 231520Z 32005KT 9999 BKN300 23/14 Q1025 BLU+FCST CANCEL
Conditions at: ETMN (NORDHOLZ (GER-NA, DE) observed 1520 UTC 23 August 2019
Temperature: 23.0°C (73°F)
Dewpoint: 14.0°C (57°F) [RH = 57%]
Pressure (altimeter): 30.27 inches Hg (1025.0 mb)
Winds: from the NW (320 degrees) at 6 MPH (5 knots; 2.6 m/s)
Visibility: 6 or more miles (10+ km)
Ceiling: 30000 feet AGL
Clouds: broken clouds at 30000 feet AGL
Weather: no significant weather observed at this time

METAR text: ETMN 231420Z 29006KT 9999 BKN270 23/14 Q1026 BLU+BLU+
Conditions at: ETMN (NORDHOLZ (GER-NA, DE) observed 1420 UTC 23 August 2019
Temperature: 23.0°C (73°F)
Dewpoint: 14.0°C (57°F) [RH = 57%]
Pressure (altimeter): 30.30 inches Hg (1026.0 mb)
Winds: from the WNW (290 degrees) at 7 MPH (6 knots; 3.1 m/s)
Visibility: 6 or more miles (10+ km)
Ceiling: 27000 feet AGL
Clouds: broken clouds at 27000 feet AGL
Weather: no significant weather observed at this time

METAR text: ETMN 231320Z 25005KT 9999 BKN280 23/13 Q1026 BLU+BLU+
Conditions at: ETMN (NORDHOLZ (GER-NA, DE) observed 1320 UTC 23 August 2019
Temperature: 23.0°C (73°F)
Dewpoint: 13.0°C (55°F) [RH = 53%]
Pressure (altimeter): 30.30 inches Hg (1026.0 mb)
Winds: from the WSW (250 degrees) at 6 MPH (5 knots; 2.6 m/s)
Visibility: 6 or more miles (10+ km)
Ceiling: 28000 feet AGL
Clouds: broken clouds at 28000 feet AGL
Weather: no significant weather observed at this time

METAR text: ETMN 231220Z 26006KT 9999 BKN290 23/12 Q1026 BLU+BLU+
Conditions at: ETMN (NORDHOLZ (GER-NA, DE) observed 1220 UTC 23 August 2019
Temperature: 23.0°C (73°F)
Dewpoint: 12.0°C (54°F) [RH = 50%]
Pressure (altimeter): 30.30 inches Hg (1026.0 mb)
Winds: from the W (260 degrees) at 7 MPH (6 knots; 3.1 m/s)
Visibility: 6 or more miles (10+ km)
Ceiling: 29000 feet AGL
Clouds: broken clouds at 29000 feet AGL
Weather: no significant weather observed at this time

METAR text: ETMN 231120Z 24007KT 9999 BKN290 22/11 Q1026 BLU+BLU+
Conditions at: ETMN (NORDHOLZ (GER-NA, DE) observed 1120 UTC 23 August 2019
Temperature: 22.0°C (72°F)
Dewpoint: 11.0°C (52°F) [RH = 50%]
Pressure (altimeter): 30.30 inches Hg (1026.0 mb)
Winds: from the WSW (240 degrees) at 8 MPH (7 knots; 3.6 m/s)
Visibility: 6 or more miles (10+ km)
Ceiling: 29000 feet AGL
Clouds: broken clouds at 29000 feet AGL
Weather: no significant weather observed at this time

METAR text: ETMN 231020Z 25006KT 9999 BKN300 22/10 Q1026 BLU+BLU+
Conditions at: ETMN (NORDHOLZ (GER-NA, DE) observed 1020 UTC 23 August 2019
Temperature: 22.0°C (72°F)
Dewpoint: 10.0°C (50°F) [RH = 46%]
Pressure (altimeter): 30.30 inches Hg (1026.0 mb)
Winds: from the WSW (250 degrees) at 7 MPH (6 knots; 3.1 m/s)
Visibility: 6 or more miles (10+ km)
Ceiling: 30000 feet AGL
Clouds: broken clouds at 30000 feet AGL
Weather: no significant weather observed at this time

METAR text: ETMN 230920Z 24007KT 9999 BKN260 20/09 Q1026 BLU+BLU+
Conditions at: ETMN (NORDHOLZ (GER-NA, DE) observed 0920 UTC 23 August 2019
Temperature: 20.0°C (68°F)
Dewpoint: 9.0°C (48°F) [RH = 49%]
Pressure (altimeter): 30.30 inches Hg (1026.0 mb)
Winds: from the WSW (240 degrees) at 8 MPH (7 knots; 3.6 m/s)
Visibility: 6 or more miles (10+ km)
Ceiling: 26000 feet AGL
Clouds: broken clouds at 26000 feet AGL
Weather: no significant weather observed at this time

METAR text: ETMN 230820Z 25007KT 9999 BKN240 19/10 Q1026 BLU+BLU+
Conditions at: ETMN (NORDHOLZ (GER-NA, DE) observed 0820 UTC 23 August 2019
Temperature: 19.0°C (66°F)
Dewpoint: 10.0°C (50°F) [RH = 56%]
Pressure (altimeter): 30.30 inches Hg (1026.0 mb)
Winds: from the WSW (250 degrees) at 8 MPH (7 knots; 3.6 m/s)
Visibility: 6 or more miles (10+ km)
Ceiling: 24000 feet AGL
Clouds: broken clouds at 24000 feet AGL
Weather: no significant weather observed at this time

METAR text: ETMN 230819Z 25008KT 9999 BKN240 19/10 Q1026 BLU+BLU+
Conditions at: ETMN (NORDHOLZ (GER-NA, DE) observed 0819 UTC 23 August 2019
Temperature: 19.0°C (66°F)
Dewpoint: 10.0°C (50°F) [RH = 56%]
Pressure (altimeter): 30.30 inches Hg (1026.0 mb)
Winds: from the WSW (250 degrees) at 9 MPH (8 knots; 4.1 m/s)
Visibility: 6 or more miles (10+ km)
Ceiling: 24000 feet AGL
Clouds: broken clouds at 24000 feet AGL
Weather: no significant weather observed at this time

METAR text: ETMN 230720Z 25006KT 8000 BKN250 18/12 Q1026 BLU+BLU+
Conditions at: ETMN (NORDHOLZ (GER-NA, DE) observed 0720 UTC 23 August 2019
Temperature: 18.0°C (64°F)
Dewpoint: 12.0°C (54°F) [RH = 68%]
Pressure (altimeter): 30.30 inches Hg (1026.0 mb)
Winds: from the WSW (250 degrees) at 7 MPH (6 knots; 3.1 m/s)
Visibility: 5 miles ( 8 km)
Ceiling: 25000 feet AGL
Clouds: broken clouds at 25000 feet AGL
Weather: no significant weather observed at this time

METAR text: ETMN 230620Z 22006KT 7000 BKN250 16/12 Q1025 WHT BLU+ TEMPO YLO
Conditions at: ETMN (NORDHOLZ (GER-NA, DE) observed 0620 UTC 23 August 2019
Temperature: 16.0°C (61°F)
Dewpoint: 12.0°C (54°F) [RH = 77%]
Pressure (altimeter): 30.27 inches Hg (1025.0 mb)
Winds: from the SW (220 degrees) at 7 MPH (6 knots; 3.1 m/s)
Visibility: 4 miles ( 7 km)
Ceiling: 25000 feet AGL
Clouds: broken clouds at 25000 feet AGL
Weather: no significant weather observed at this time

METAR text: ETMN 230520Z 22006KT 5000 VCFG BR BKN260 15/13 Q1025 WHT BLU+ TEMPO YLO
Conditions at: ETMN (NORDHOLZ (GER-NA, DE) observed 0520 UTC 23 August 2019
Temperature: 15.0°C (59°F)
Dewpoint: 13.0°C (55°F) [RH = 88%]
Pressure (altimeter): 30.27 inches Hg (1025.0 mb)
Winds: from the SW (220 degrees) at 7 MPH (6 knots; 3.1 m/s)
Visibility: 3 miles ( 5 km)
Ceiling: 26000 feet AGL
Clouds: broken clouds at 26000 feet AGL
Weather: VCFG BR  (fog in vicinity, mist)

METAR text: ETMN 230420Z 21004KT 6000 VCFG BKN300 13/11 Q1025 WHT BLU+ TEMPO YLO
Conditions at: ETMN (NORDHOLZ (GER-NA, DE) observed 0420 UTC 23 August 2019
Temperature: 13.0°C (55°F)
Dewpoint: 11.0°C (52°F) [RH = 88%]
Pressure (altimeter): 30.27 inches Hg (1025.0 mb)
Winds: from the SSW (210 degrees) at 5 MPH (4 knots; 2.1 m/s)
Visibility: 4 miles ( 6 km)
Ceiling: 30000 feet AGL
Clouds: broken clouds at 30000 feet AGL
Weather: VCFG  (fog in vicinity)

METAR text: ETMN 230402Z 21005KT 6000 VCFG BKN290 14/11 Q1025 WHT
Conditions at: ETMN (NORDHOLZ (GER-NA, DE) observed 0402 UTC 23 August 2019
Temperature: 14.0°C (57°F)
Dewpoint: 11.0°C (52°F) [RH = 82%]
Pressure (altimeter): 30.27 inches Hg (1025.0 mb)
Winds: from the SSW (210 degrees) at 6 MPH (5 knots; 2.6 m/s)
Visibility: 4 miles ( 6 km)
Ceiling: 29000 feet AGL
Clouds: broken clouds at 29000 feet AGL
Weather: VCFG  (fog in vicinity)

METAR text: ETMN 230320Z 21005KT 9999 MIFG FEW380 13/11 Q1025 BLU+
Conditions at: ETMN (NORDHOLZ (GER-NA, DE) observed 0320 UTC 23 August 2019
Temperature: 13.0°C (55°F)
Dewpoint: 11.0°C (52°F) [RH = 88%]
Pressure (altimeter): 30.27 inches Hg (1025.0 mb)
Winds: from the SSW (210 degrees) at 6 MPH (5 knots; 2.6 m/s)
Visibility: 6 or more miles (10+ km)
Ceiling: at least 12,000 feet AGL
Clouds: few clouds at 38000 feet AGL
Weather: MIFG  (shallow fog)

METAR text: ETMN 230220Z 18003KT 9999 FEW340 14/11 Q1025 BLU+
Conditions at: ETMN (NORDHOLZ (GER-NA, DE) observed 0220 UTC 23 August 2019
Temperature: 14.0°C (57°F)
Dewpoint: 11.0°C (52°F) [RH = 82%]
Pressure (altimeter): 30.27 inches Hg (1025.0 mb)
Winds: from the S (180 degrees) at 3 MPH (3 knots; 1.5 m/s)
Visibility: 6 or more miles (10+ km)
Ceiling: at least 12,000 feet AGL
Clouds: few clouds at 34000 feet AGL
Weather: no significant weather observed at this time